Time;durP1;ratioP1;P1;durP2;ratioP2;P2;SDS_P1;SDS_P2;PMS_P1;PMS_P2;Temp;Humidity;BMP_temperature;BMP_pressure;BME280_temperature;BME280_humidity;BME280_pressure;Samples;Min_cycle;Max_cycle;Signal;HPM_P1;HPM_P2
2021/12/29 00:00:54;;;;;;;3.87;1.80;;;;;;;;;;5027107;28;20234;-81
2021/12/29 00:03:21;;;;;;;3.93;1.80;;;;;;;;;;5019096;28;20231;-81
2021/12/29 00:05:48;;;;;;;2.83;1.60;;;;;;;;;;5020367;28;20208;-81
2021/12/29 00:08:16;;;;;;;2.33;1.60;;;;;;;;;;5019826;28;20231;-82
2021/12/29 00:10:44;;;;;;;1.93;1.47;;;;;;;;;;5019608;28;20216;-81
2021/12/29 00:13:11;;;;;;;3.37;1.93;;;;;;;;;;5018747;28;20299;-81
2021/12/29 00:15:38;;;;;;;2.80;1.53;;;;;;;;;;5019733;28;20825;-81
2021/12/29 00:18:06;;;;;;;2.60;1.40;;;;;;;;;;5016760;28;20585;-81
2021/12/29 00:20:33;;;;;;;6.33;1.60;;;;;;;;;;5014413;28;20214;-81
2021/12/29 00:23:01;;;;;;;3.80;1.60;;;;;;;;;;5013870;28;20215;-81
2021/12/29 00:25:33;;;;;;;1.90;1.70;;;;;;;;;;5014380;28;20222;-81
2021/12/29 00:28:01;;;;;;;6.70;1.60;;;;;;;;;;5013496;28;20211;-81
2021/12/29 00:30:28;;;;;;;3.50;1.70;;;;;;;;;;5014383;28;20207;-81
2021/12/29 00:32:56;;;;;;;3.60;2.00;;;;;;;;;;5014145;28;20676;-81
2021/12/29 00:35:23;;;;;;;2.17;1.57;;;;;;;;;;5015917;28;20211;-81
2021/12/29 00:37:50;;;;;;;1.77;1.47;;;;;;;;;;5017017;28;20211;-81
2021/12/29 00:40:17;;;;;;;3.13;1.73;;;;;;;;;;5015947;28;20266;-81
2021/12/29 00:42:45;;;;;;;3.10;1.60;;;;;;;;;;5015787;28;20211;-81
2021/12/29 00:45:14;;;;;;;3.50;1.60;;;;;;;;;;5014736;28;20250;-81
2021/12/29 00:47:41;;;;;;;3.60;1.80;;;;;;;;;;5015248;28;20211;-81
2021/12/29 00:50:13;;;;;;;1.80;1.63;;;;;;;;;;5017239;28;20281;-81
2021/12/29 00:52:40;;;;;;;2.43;1.60;;;;;;;;;;5016919;28;20211;-81
2021/12/29 00:55:08;;;;;;;1.57;1.47;;;;;;;;;;5016674;28;20235;-81
2021/12/29 00:57:35;;;;;;;1.80;1.60;;;;;;;;;;5016849;28;20728;-80
2021/12/29 01:00:04;;;;;;;2.03;1.60;;;;;;;;;;5021074;28;20284;-81
2021/12/29 01:02:31;;;;;;;4.53;1.77;;;;;;;;;;5035590;28;20218;-81
2021/12/29 01:04:58;;;;;;;5.13;1.57;;;;;;;;;;5034611;28;20597;-81
2021/12/29 01:07:25;;;;;;;3.90;1.70;;;;;;;;;;5035043;28;20215;-81
2021/12/29 01:09:52;;;;;;;2.20;1.53;;;;;;;;;;5034186;28;20235;-81
2021/12/29 01:12:19;;;;;;;2.13;1.70;;;;;;;;;;5034749;28;20211;-81
2021/12/29 01:14:53;;;;;;;3.63;1.80;;;;;;;;;;5034623;28;20234;-81
2021/12/29 01:17:22;;;;;;;3.67;1.53;;;;;;;;;;5037420;28;20285;-81
2021/12/29 01:19:50;;;;;;;2.03;1.40;;;;;;;;;;5036085;28;20243;-81
2021/12/29 01:22:17;;;;;;;2.60;1.50;;;;;;;;;;5034464;28;20241;-82
2021/12/29 01:24:46;;;;;;;4.23;1.67;;;;;;;;;;5035862;28;20239;-81
2021/12/29 01:27:13;;;;;;;4.53;1.73;;;;;;;;;;5035596;28;20690;-81
2021/12/29 01:29:40;;;;;;;2.23;1.50;;;;;;;;;;5033629;28;20313;-81
2021/12/29 01:32:07;;;;;;;1.50;1.40;;;;;;;;;;5035826;28;20206;-81
2021/12/29 01:34:36;;;;;;;3.73;2.13;;;;;;;;;;5036958;28;20238;-81
2021/12/29 01:37:03;;;;;;;3.50;1.67;;;;;;;;;;5036244;28;20206;-81
2021/12/29 01:39:30;;;;;;;2.83;1.63;;;;;;;;;;5032464;28;20242;-81
2021/12/29 01:41:58;;;;;;;1.47;1.37;;;;;;;;;;5036288;28;20207;-81
2021/12/29 01:44:27;;;;;;;4.37;1.73;;;;;;;;;;5036303;28;20242;-81
2021/12/29 01:46:55;;;;;;;3.73;1.40;;;;;;;;;;5037223;28;20590;-81
2021/12/29 01:49:22;;;;;;;2.67;1.57;;;;;;;;;;5036757;28;20234;-81
2021/12/29 01:52:01;;;;;;;1.47;1.43;;;;;;;;;;5036335;28;20211;-81
2021/12/29 01:54:34;;;;;;;4.83;1.90;;;;;;;;;;5035561;28;20300;-82
2021/12/29 01:57:01;;;;;;;1.97;1.50;;;;;;;;;;5036529;28;20207;-81
2021/12/29 01:59:28;;;;;;;2.40;1.73;;;;;;;;;;5037016;28;20292;-81
2021/12/29 02:01:56;;;;;;;2.80;1.60;;;;;;;;;;5036628;28;20706;-82
2021/12/29 02:04:23;;;;;;;3.30;1.53;;;;;;;;;;5036019;28;20248;-82
2021/12/29 02:06:51;;;;;;;3.90;1.90;;;;;;;;;;5033999;28;20207;-81
2021/12/29 02:09:18;;;;;;;1.40;1.30;;;;;;;;;;5033442;28;20579;-81
2021/12/29 02:11:46;;;;;;;1.20;1.20;;;;;;;;;;5036415;28;20222;-81
2021/12/29 02:14:13;;;;;;;2.30;1.83;;;;;;;;;;5033287;28;20253;-81
2021/12/29 02:16:40;;;;;;;2.17;1.50;;;;;;;;;;5035819;28;20284;-81
2021/12/29 02:19:09;;;;;;;1.30;1.30;;;;;;;;;;5034818;28;20630;-81
2021/12/29 02:21:38;;;;;;;1.70;1.60;;;;;;;;;;5035191;28;20211;-81
2021/12/29 02:24:20;;;;;;;2.47;1.53;;;;;;;;;;5034972;28;20238;-81
2021/12/29 02:26:47;;;;;;;2.07;1.93;;;;;;;;;;5035683;28;20209;-81
2021/12/29 02:29:16;;;;;;;2.67;1.80;;;;;;;;;;5035652;28;20235;-81
2021/12/29 02:31:43;;;;;;;3.40;1.90;;;;;;;;;;5036447;28;20238;-81
2021/12/29 02:34:11;;;;;;;4.40;2.27;;;;;;;;;;5035195;28;20249;-81
2021/12/29 02:36:43;;;;;;;3.80;2.33;;;;;;;;;;5035842;28;20210;-81
2021/12/29 02:39:11;;;;;;;5.10;2.13;;;;;;;;;;5035092;28;20234;-81
2021/12/29 02:41:42;;;;;;;1.77;1.67;;;;;;;;;;5035788;28;20207;-81
2021/12/29 02:44:15;;;;;;;5.23;2.70;;;;;;;;;;5035344;28;20239;-81
2021/12/29 02:46:42;;;;;;;2.73;2.30;;;;;;;;;;5035432;28;20302;-81
2021/12/29 02:49:09;;;;;;;6.40;3.23;;;;;;;;;;5034826;28;20734;-81
2021/12/29 02:51:36;;;;;;;8.80;3.00;;;;;;;;;;5036933;28;20214;-81
2021/12/29 02:54:05;;;;;;;5.40;2.40;;;;;;;;;;5037924;28;20254;-81
2021/12/29 02:56:32;;;;;;;5.73;2.80;;;;;;;;;;5037501;28;20674;-81
2021/12/29 02:58:59;;;;;;;3.60;2.43;;;;;;;;;;5038876;28;20292;-81
2021/12/29 03:01:27;;;;;;;3.10;1.70;;;;;;;;;;5022555;28;20203;-81
2021/12/29 03:03:54;;;;;;;2.90;1.97;;;;;;;;;;5019287;28;20737;-81
2021/12/29 03:06:21;;;;;;;4.63;1.83;;;;;;;;;;5020097;28;20339;-81
2021/12/29 03:08:49;;;;;;;2.10;1.70;;;;;;;;;;5020207;28;20231;-81
2021/12/29 03:11:17;;;;;;;2.47;2.07;;;;;;;;;;5020255;28;20203;-81
2021/12/29 03:13:44;;;;;;;4.87;2.40;;;;;;;;;;5019561;28;20262;-81
2021/12/29 03:16:12;;;;;;;5.77;2.13;;;;;;;;;;5019941;28;20214;-81
2021/12/29 03:18:40;;;;;;;2.17;2.03;;;;;;;;;;5020256;28;20241;-81
2021/12/29 03:21:07;;;;;;;4.23;2.50;;;;;;;;;;5020170;28;20227;-81
2021/12/29 03:23:34;;;;;;;3.03;2.30;;;;;;;;;;5019460;28;20289;-81
2021/12/29 03:26:02;;;;;;;3.57;2.30;;;;;;;;;;5020606;28;20207;-81
2021/12/29 03:28:30;;;;;;;2.27;2.00;;;;;;;;;;5019873;28;20231;-81
2021/12/29 03:30:57;;;;;;;3.00;2.10;;;;;;;;;;5020059;28;20234;-81
2021/12/29 03:33:26;;;;;;;4.03;2.37;;;;;;;;;;5019182;28;20620;-81
2021/12/29 03:35:54;;;;;;;2.93;2.10;;;;;;;;;;5019611;28;20211;-81
2021/12/29 03:38:23;;;;;;;3.30;1.90;;;;;;;;;;5017052;28;20235;-82
2021/12/29 03:40:50;;;;;;;7.00;2.50;;;;;;;;;;5016984;28;20634;-81
2021/12/29 03:43:18;;;;;;;4.53;2.23;;;;;;;;;;5016529;28;20266;-81
2021/12/29 03:45:47;;;;;;;3.93;2.03;;;;;;;;;;5017731;28;20726;-81
2021/12/29 03:48:15;;;;;;;4.20;2.10;;;;;;;;;;5015963;28;20611;-81
2021/12/29 03:50:42;;;;;;;2.80;2.30;;;;;;;;;;5018430;28;20207;-81
2021/12/29 03:53:12;;;;;;;2.53;2.10;;;;;;;;;;5018094;28;20204;-81
2021/12/29 03:55:40;;;;;;;2.00;1.90;;;;;;;;;;5018812;28;20439;-81
2021/12/29 03:58:07;;;;;;;4.20;1.90;;;;;;;;;;5018160;28;20234;-81
2021/12/29 04:00:34;;;;;;;3.17;2.27;;;;;;;;;;5028464;28;20226;-81
2021/12/29 04:03:03;;;;;;;2.17;1.93;;;;;;;;;;5035059;28;20256;-82
2021/12/29 04:05:30;;;;;;;4.33;1.77;;;;;;;;;;5038233;28;20195;-81
2021/12/29 04:07:57;;;;;;;2.57;2.23;;;;;;;;;;5038489;28;20553;-81
2021/12/29 04:10:25;;;;;;;2.40;2.20;;;;;;;;;;5039911;28;20222;-81
2021/12/29 04:12:52;;;;;;;1.90;1.80;;;;;;;;;;5038748;28;20206;-81
2021/12/29 04:15:20;;;;;;;1.63;1.53;;;;;;;;;;5039047;28;20662;-81
2021/12/29 04:17:48;;;;;;;4.30;2.20;;;;;;;;;;5039007;28;20209;-81
2021/12/29 04:23:04;;;;;;;4.13;1.83;;;;;;;;;;5035350;28;20205;-81
2021/12/29 04:25:34;;;;;;;2.43;1.70;;;;;;;;;;5036666;28;20214;-81
2021/12/29 04:28:02;;;;;;;1.73;1.63;;;;;;;;;;5037750;28;20230;-81
2021/12/29 04:30:29;;;;;;;3.13;1.87;;;;;;;;;;5037888;28;20202;-81
2021/12/29 04:32:56;;;;;;;3.57;1.60;;;;;;;;;;5037303;28;20213;-81
2021/12/29 04:35:25;;;;;;;3.27;2.03;;;;;;;;;;5037581;28;20209;-81
2021/12/29 04:37:52;;;;;;;1.80;1.63;;;;;;;;;;5038240;28;20211;-81
2021/12/29 04:40:20;;;;;;;3.33;1.50;;;;;;;;;;5038508;28;20222;-81
2021/12/29 04:42:47;;;;;;;1.90;1.80;;;;;;;;;;5038062;28;20206;-81
2021/12/29 04:45:15;;;;;;;3.77;1.90;;;;;;;;;;5037313;28;20238;-81
2021/12/29 04:47:44;;;;;;;2.60;1.70;;;;;;;;;;5038067;28;20207;-81
2021/12/29 04:50:23;;;;;;;1.83;1.73;;;;;;;;;;5037927;28;20317;-81
2021/12/29 04:52:51;;;;;;;2.50;2.03;;;;;;;;;;5038464;28;20210;-81
2021/12/29 04:55:18;;;;;;;3.93;1.90;;;;;;;;;;5037313;28;20234;-81
2021/12/29 04:57:45;;;;;;;3.03;1.80;;;;;;;;;;5037237;28;20233;-81
2021/12/29 05:00:13;;;;;;;2.47;1.90;;;;;;;;;;5036670;28;20601;-81
2021/12/29 05:02:40;;;;;;;2.07;1.80;;;;;;;;;;5038145;28;20612;-81
2021/12/29 05:05:19;;;;;;;1.80;1.70;;;;;;;;;;5037731;28;20246;-81
2021/12/29 05:10:32;;;;;;;2.10;1.93;;;;;;;;;;5037564;28;20757;-81
2021/12/29 05:12:59;;;;;;;2.00;1.90;;;;;;;;;;5037361;28;20321;-81
2021/12/29 05:15:27;;;;;;;2.67;2.10;;;;;;;;;;5037257;28;20242;-81
2021/12/29 05:17:54;;;;;;;3.50;2.00;;;;;;;;;;5037006;28;20269;-81
2021/12/29 05:20:22;;;;;;;2.73;2.00;;;;;;;;;;5037385;28;20231;-81
2021/12/29 05:22:49;;;;;;;3.20;1.93;;;;;;;;;;5038055;28;20645;-81
2021/12/29 05:25:16;;;;;;;2.93;2.27;;;;;;;;;;5037013;28;20240;-81
2021/12/29 05:27:44;;;;;;;8.63;4.70;;;;;;;;;;5037829;28;20218;-81
2021/12/29 05:30:11;;;;;;;3.07;2.57;;;;;;;;;;5037320;28;20235;-81
2021/12/29 05:32:39;;;;;;;8.10;3.70;;;;;;;;;;5033738;28;20206;-81
2021/12/29 05:35:06;;;;;;;2.50;2.30;;;;;;;;;;5032075;28;20654;-81
2021/12/29 05:37:33;;;;;;;5.63;3.00;;;;;;;;;;5032547;28;20632;-81
2021/12/29 05:40:00;;;;;;;3.90;2.47;;;;;;;;;;5032281;28;20239;-81
2021/12/29 05:42:27;;;;;;;3.53;2.37;;;;;;;;;;5032853;28;20663;-81
2021/12/29 05:44:56;;;;;;;3.97;2.60;;;;;;;;;;5033067;28;20250;-81
2021/12/29 05:47:23;;;;;;;4.37;2.43;;;;;;;;;;5033063;28;20268;-81
2021/12/29 05:49:50;;;;;;;2.60;2.40;;;;;;;;;;5032378;28;20226;-81
2021/12/29 05:52:18;;;;;;;2.50;1.93;;;;;;;;;;5032651;28;20210;-81
2021/12/29 05:54:45;;;;;;;3.07;2.33;;;;;;;;;;5032929;28;20234;-81
2021/12/29 05:57:12;;;;;;;2.30;2.10;;;;;;;;;;5033636;28;20680;-81
2021/12/29 05:59:39;;;;;;;2.90;2.63;;;;;;;;;;5032741;28;20238;-81
2021/12/29 06:02:07;;;;;;;2.63;2.43;;;;;;;;;;5033175;28;20206;-81
2021/12/29 06:04:34;;;;;;;3.97;2.53;;;;;;;;;;5031872;28;20239;-81
2021/12/29 06:07:01;;;;;;;4.27;2.50;;;;;;;;;;5033111;28;20265;-80
2021/12/29 06:09:28;;;;;;;3.70;2.43;;;;;;;;;;5032114;28;20242;-82
2021/12/29 06:11:55;;;;;;;2.80;2.23;;;;;;;;;;5033012;28;20209;-83
2021/12/29 06:14:22;;;;;;;3.90;2.10;;;;;;;;;;5032475;28;20240;-83
2021/12/29 06:16:49;;;;;;;2.30;2.10;;;;;;;;;;5033249;28;20218;-83
2021/12/29 06:19:18;;;;;;;3.77;2.40;;;;;;;;;;5032653;28;20256;-83
2021/12/29 06:21:45;;;;;;;3.73;2.50;;;;;;;;;;5032975;28;20218;-83
2021/12/29 06:24:12;;;;;;;2.90;1.83;;;;;;;;;;5034486;28;20241;-82
2021/12/29 06:26:39;;;;;;;3.73;2.47;;;;;;;;;;5032810;28;20209;-84
2021/12/29 06:29:06;;;;;;;2.23;2.03;;;;;;;;;;5033554;28;20234;-84
2021/12/29 06:31:33;;;;;;;3.23;2.07;;;;;;;;;;5033670;28;20210;-84
2021/12/29 06:34:01;;;;;;;2.40;2.00;;;;;;;;;;5034681;28;20269;-84
2021/12/29 06:36:30;;;;;;;2.10;2.00;;;;;;;;;;5034711;28;20211;-84
2021/12/29 06:38:58;;;;;;;2.03;1.93;;;;;;;;;;5034044;28;20230;-83
2021/12/29 06:41:25;;;;;;;2.67;2.17;;;;;;;;;;5034375;28;20223;-84
2021/12/29 06:43:52;;;;;;;2.23;1.93;;;;;;;;;;5034384;28;20231;-84
2021/12/29 06:46:20;;;;;;;1.70;1.60;;;;;;;;;;5035139;28;20207;-84
2021/12/29 06:48:47;;;;;;;1.70;1.60;;;;;;;;;;5028838;28;20707;-84
2021/12/29 06:51:14;;;;;;;2.83;1.90;;;;;;;;;;5012850;28;20679;-84
2021/12/29 06:53:42;;;;;;;4.30;2.50;;;;;;;;;;5012465;28;20235;-84
2021/12/29 06:56:09;;;;;;;2.47;2.07;;;;;;;;;;5013249;28;20226;-84
2021/12/29 06:58:36;;;;;;;2.37;2.20;;;;;;;;;;5012501;28;20679;-84
2021/12/29 07:01:05;;;;;;;2.40;2.30;;;;;;;;;;5027446;28;20273;-83
2021/12/29 07:03:32;;;;;;;3.70;2.53;;;;;;;;;;5033381;28;20261;-83
2021/12/29 07:06:00;;;;;;;3.23;2.93;;;;;;;;;;5034318;28;20191;-83
2021/12/29 07:08:27;;;;;;;3.00;2.70;;;;;;;;;;5033742;28;20230;-83
2021/12/29 07:10:55;;;;;;;3.40;3.07;;;;;;;;;;5032084;28;20203;-85
2021/12/29 07:13:25;;;;;;;5.10;2.87;;;;;;;;;;5032885;28;20242;-83
